Time;durP1;ratioP1;P1;durP2;ratioP2;P2;SDS_P1;SDS_P2;PMS_P1;PMS_P2;Temp;Humidity;BMP_temperature;BMP_pressure;BME280_temperature;BME280_humidity;BME280_pressure;Samples;Min_cycle;Max_cycle;Signal;HPM_P1;HPM_P2
2022/04/10 00:00:15;;;;;;;;;;;4.90;99.90;;;;;;2083366;28;19913;-68
2022/04/10 00:01:16;;;;;;;;;;;4.90;99.90;;;;;;2081398;28;19956;-68
2022/04/10 00:02:16;;;;;;;;;;;4.90;99.90;;;;;;2080664;28;20269;-68
2022/04/10 00:03:16;;;;;;;;;;;4.90;99.90;;;;;;2076458;28;20320;-68
2022/04/10 00:04:17;;;;;;;;;;;4.90;99.90;;;;;;2081617;28;19968;-68
2022/04/10 00:05:17;;;;;;;;;;;4.90;99.90;;;;;;2077949;28;20396;-69
2022/04/10 00:06:18;;;;;;;;;;;4.90;99.90;;;;;;2080458;28;19921;-69
2022/04/10 00:07:18;;;;;;;;;;;4.90;99.90;;;;;;2076635;28;19929;-69
2022/04/10 00:08:19;;;;;;;;;;;4.80;99.90;;;;;;2079851;28;20357;-68
2022/04/10 00:09:20;;;;;;;;;;;4.80;99.90;;;;;;2081295;28;20050;-68
2022/04/10 00:10:20;;;;;;;;;;;4.80;99.90;;;;;;2081005;28;19948;-68
2022/04/10 00:11:21;;;;;;;;;;;4.80;99.90;;;;;;2082157;28;19960;-68
2022/04/10 00:12:21;;;;;;;;;;;4.80;99.90;;;;;;2080105;28;20364;-68
2022/04/10 00:13:22;;;;;;;;;;;4.80;99.90;;;;;;2080773;28;19913;-69
2022/04/10 00:14:22;;;;;;;;;;;4.80;99.90;;;;;;2080423;28;19913;-68
2022/04/10 00:15:23;;;;;;;;;;;4.80;99.90;;;;;;2079983;28;19920;-69
2022/04/10 00:16:23;;;;;;;;;;;4.80;99.90;;;;;;2081339;28;20287;-69
2022/04/10 00:17:24;;;;;;;;;;;4.80;99.90;;;;;;2083225;28;19909;-69
2022/04/10 00:18:24;;;;;;;;;;;4.80;99.90;;;;;;2081345;28;20004;-69
2022/04/10 00:19:25;;;;;;;;;;;4.70;99.90;;;;;;2080610;28;19917;-68
2022/04/10 00:20:25;;;;;;;;;;;4.70;99.90;;;;;;2081397;28;19952;-68
2022/04/10 00:21:25;;;;;;;;;;;4.70;99.90;;;;;;2077597;28;20000;-68
2022/04/10 00:22:26;;;;;;;;;;;4.70;99.90;;;;;;2079205;28;19917;-68
2022/04/10 00:23:26;;;;;;;;;;;4.70;99.90;;;;;;2076218;28;19921;-68
2022/04/10 00:24:28;;;;;;;;;;;4.70;99.90;;;;;;2080902;28;19932;-68
2022/04/10 00:25:28;;;;;;;;;;;4.60;99.90;;;;;;2081789;28;19940;-68
2022/04/10 00:26:29;;;;;;;;;;;4.70;99.90;;;;;;2080148;28;19917;-68
2022/04/10 00:27:29;;;;;;;;;;;4.60;99.90;;;;;;2081381;28;19921;-68
2022/04/10 00:28:30;;;;;;;;;;;4.60;99.90;;;;;;2085007;28;20412;-68
2022/04/10 00:29:30;;;;;;;;;;;4.60;99.90;;;;;;2080391;28;19913;-68
2022/04/10 00:30:32;;;;;;;;;;;4.60;99.90;;;;;;2078020;28;20016;-68
2022/04/10 00:31:32;;;;;;;;;;;4.60;99.90;;;;;;2081052;28;19913;-68
2022/04/10 00:32:33;;;;;;;;;;;4.60;99.90;;;;;;2082400;28;19999;-68
2022/04/10 00:33:33;;;;;;;;;;;4.60;99.90;;;;;;2080048;28;19909;-68
2022/04/10 00:34:34;;;;;;;;;;;4.60;99.90;;;;;;2080392;28;19910;-68
2022/04/10 00:35:34;;;;;;;;;;;4.50;99.90;;;;;;2080450;28;19920;-68
2022/04/10 00:36:35;;;;;;;;;;;4.50;99.90;;;;;;2082334;28;19968;-68
2022/04/10 00:37:36;;;;;;;;;;;4.50;99.90;;;;;;2082386;28;19916;-68
2022/04/10 00:38:36;;;;;;;;;;;4.50;99.90;;;;;;2082064;28;19909;-68
2022/04/10 00:39:37;;;;;;;;;;;4.50;99.90;;;;;;2082510;28;19917;-69
2022/04/10 00:40:38;;;;;;;;;;;4.50;99.90;;;;;;2073012;28;20301;-69
2022/04/10 00:41:38;;;;;;;;;;;4.50;99.90;;;;;;2072500;28;19921;-68
2022/04/10 00:42:40;;;;;;;;;;;4.50;99.90;;;;;;2080159;28;19917;-68
2022/04/10 00:44:00;;;;;;;;;;;4.50;99.90;;;;;;2080391;28;20398;-68
2022/04/10 00:45:00;;;;;;;;;;;4.50;99.90;;;;;;2078932;28;20317;-68
2022/04/10 00:46:01;;;;;;;;;;;4.50;99.90;;;;;;2078462;28;19936;-68
2022/04/10 00:47:02;;;;;;;;;;;4.50;99.90;;;;;;2078103;28;19917;-68
2022/04/10 00:48:02;;;;;;;;;;;4.50;99.90;;;;;;2082934;28;19925;-68
2022/04/10 00:49:04;;;;;;;;;;;4.50;99.90;;;;;;2081021;28;19924;-69
2022/04/10 00:50:05;;;;;;;;;;;4.50;99.90;;;;;;2079560;28;19909;-69
2022/04/10 00:52:28;;;;;;;;;;;4.50;99.90;;;;;;2079631;28;20634;-68
2022/04/10 00:53:29;;;;;;;;;;;4.50;99.90;;;;;;2080218;28;20011;-69
2022/04/10 00:54:30;;;;;;;;;;;4.40;99.90;;;;;;2079588;28;20466;-69
2022/04/10 00:55:30;;;;;;;;;;;4.40;99.90;;;;;;2081312;28;20105;-68
2022/04/10 00:56:31;;;;;;;;;;;4.40;99.90;;;;;;2083400;28;19921;-68
2022/04/10 00:57:32;;;;;;;;;;;4.40;99.90;;;;;;2081846;28;19917;-68
2022/04/10 00:58:32;;;;;;;;;;;4.40;99.90;;;;;;2080954;28;19917;-68
2022/04/10 00:59:33;;;;;;;;;;;4.40;99.90;;;;;;2077845;28;20267;-70
2022/04/10 01:00:33;;;;;;;;;;;4.40;99.90;;;;;;2078073;28;19910;-68
2022/04/10 01:01:34;;;;;;;;;;;4.40;99.90;;;;;;2080207;28;19936;-68
2022/04/10 01:02:36;;;;;;;;;;;4.40;99.90;;;;;;2079811;28;19913;-68
2022/04/10 01:03:36;;;;;;;;;;;4.40;99.90;;;;;;2078380;28;20056;-68
2022/04/10 01:04:37;;;;;;;;;;;4.40;99.90;;;;;;2082984;28;19924;-69
2022/04/10 01:05:38;;;;;;;;;;;4.40;99.90;;;;;;2081556;28;20300;-68
2022/04/10 01:06:39;;;;;;;;;;;4.40;99.90;;;;;;2081571;28;19923;-68
2022/04/10 01:07:40;;;;;;;;;;;4.40;99.90;;;;;;2080876;28;19916;-68
2022/04/10 01:08:40;;;;;;;;;;;4.40;99.90;;;;;;2078101;28;19913;-68
2022/04/10 01:09:41;;;;;;;;;;;4.40;99.90;;;;;;2079821;28;19975;-68
2022/04/10 01:10:42;;;;;;;;;;;4.40;99.90;;;;;;2080997;28;19944;-68
2022/04/10 01:11:43;;;;;;;;;;;4.30;99.90;;;;;;2082582;28;19913;-68
2022/04/10 01:12:43;;;;;;;;;;;4.40;99.90;;;;;;2083054;28;19909;-68
2022/04/10 01:13:44;;;;;;;;;;;4.30;99.90;;;;;;2079073;28;19960;-68
2022/04/10 01:14:45;;;;;;;;;;;4.30;99.90;;;;;;2082150;28;19948;-68
2022/04/10 01:15:45;;;;;;;;;;;4.30;99.90;;;;;;2078231;28;19948;-68
2022/04/10 01:16:48;;;;;;;;;;;4.30;99.90;;;;;;2078002;28;19910;-68
2022/04/10 01:17:49;;;;;;;;;;;4.30;99.90;;;;;;2079739;28;19921;-68
2022/04/10 01:18:50;;;;;;;;;;;4.30;99.90;;;;;;2081554;28;19967;-68
2022/04/10 01:19:52;;;;;;;;;;;4.30;99.90;;;;;;2080079;28;19913;-68
2022/04/10 01:20:53;;;;;;;;;;;4.30;99.90;;;;;;2082842;28;19916;-69
2022/04/10 01:21:54;;;;;;;;;;;4.30;99.90;;;;;;2080967;28;19913;-68
2022/04/10 01:22:55;;;;;;;;;;;4.30;99.90;;;;;;2081945;28;19921;-68
2022/04/10 01:23:56;;;;;;;;;;;4.20;99.90;;;;;;2077014;28;19921;-68
2022/04/10 01:24:56;;;;;;;;;;;4.20;99.90;;;;;;2080990;28;19952;-68
2022/04/10 01:25:57;;;;;;;;;;;4.20;99.90;;;;;;2077089;28;19909;-68
2022/04/10 01:26:57;;;;;;;;;;;4.20;99.90;;;;;;2081339;28;20276;-68
2022/04/10 01:28:01;;;;;;;;;;;4.20;99.90;;;;;;2083954;28;20020;-68
2022/04/10 01:29:03;;;;;;;;;;;4.20;99.90;;;;;;2082118;28;19924;-68
2022/04/10 01:30:05;;;;;;;;;;;4.20;99.90;;;;;;2081635;28;19917;-68
2022/04/10 01:31:05;;;;;;;;;;;4.20;99.90;;;;;;2082411;28;20408;-68
2022/04/10 01:32:06;;;;;;;;;;;4.20;99.90;;;;;;2080519;28;19917;-68
2022/04/10 01:33:12;;;;;;;;;;;4.10;99.90;;;;;;2082068;28;19913;-68
2022/04/10 01:34:14;;;;;;;;;;;4.20;99.90;;;;;;2071609;28;20369;-68
2022/04/10 01:35:15;;;;;;;;;;;4.10;99.90;;;;;;2079718;28;19917;-68
2022/04/10 01:36:15;;;;;;;;;;;4.10;99.90;;;;;;2079951;28;19914;-69
2022/04/10 01:37:17;;;;;;;;;;;4.10;99.90;;;;;;2079566;28;19913;-69
2022/04/10 01:38:18;;;;;;;;;;;4.10;99.90;;;;;;2083372;28;20403;-68
2022/04/10 01:39:18;;;;;;;;;;;4.10;99.90;;;;;;2082357;28;20347;-68
2022/04/10 01:40:19;;;;;;;;;;;4.10;99.90;;;;;;2082578;28;19940;-68
2022/04/10 01:41:20;;;;;;;;;;;4.10;99.90;;;;;;2081845;28;20008;-68
2022/04/10 01:42:20;;;;;;;;;;;4.10;99.90;;;;;;2077881;28;20427;-68
2022/04/10 01:43:21;;;;;;;;;;;4.10;99.90;;;;;;2084820;28;20687;-68
2022/04/10 01:44:21;;;;;;;;;;;4.10;99.90;;;;;;2079728;28;19921;-68
2022/04/10 01:45:22;;;;;;;;;;;4.10;99.90;;;;;;2072655;28;19921;-68
2022/04/10 01:46:23;;;;;;;;;;;4.10;99.90;;;;;;2074377;28;19948;-68
2022/04/10 01:47:23;;;;;;;;;;;4.10;99.90;;;;;;2080303;28;19914;-68
2022/04/10 01:48:24;;;;;;;;;;;4.10;99.90;;;;;;2081683;28;19913;-68
2022/04/10 01:49:24;;;;;;;;;;;4.10;99.90;;;;;;2080964;28;20359;-68
2022/04/10 01:50:25;;;;;;;;;;;4.10;99.90;;;;;;2082050;28;20003;-68
2022/04/10 01:51:25;;;;;;;;;;;4.00;99.90;;;;;;2082729;28;19935;-68
2022/04/10 01:52:26;;;;;;;;;;;4.10;99.90;;;;;;2080955;28;20066;-68
2022/04/10 01:53:26;;;;;;;;;;;4.00;99.90;;;;;;2079530;28;19909;-68
2022/04/10 01:54:27;;;;;;;;;;;4.10;99.90;;;;;;2081926;28;20397;-68
2022/04/10 01:55:27;;;;;;;;;;;4.10;99.90;;;;;;2079298;28;19965;-68
2022/04/10 01:56:28;;;;;;;;;;;4.10;99.90;;;;;;2081504;28;20072;-68
2022/04/10 01:57:28;;;;;;;;;;;4.10;99.90;;;;;;2077831;28;19914;-68
2022/04/10 01:58:29;;;;;;;;;;;4.00;99.90;;;;;;2072889;28;19928;-68
2022/04/10 01:59:30;;;;;;;;;;;4.00;99.90;;;;;;2065894;28;20008;-68
2022/04/10 02:00:30;;;;;;;;;;;4.00;99.90;;;;;;2073493;28;19968;-68
2022/04/10 02:01:31;;;;;;;;;;;4.00;99.90;;;;;;2081041;28;19917;-68
2022/04/10 02:02:31;;;;;;;;;;;4.00;99.90;;;;;;2080478;28;20304;-68
2022/04/10 02:03:32;;;;;;;;;;;4.00;99.90;;;;;;2078209;28;19913;-68
2022/04/10 02:04:33;;;;;;;;;;;4.00;99.90;;;;;;2081092;28;20055;-68
2022/04/10 02:05:33;;;;;;;;;;;4.00;99.90;;;;;;2080688;28;19917;-68
2022/04/10 02:06:35;;;;;;;;;;;4.00;99.90;;;;;;2083145;28;19923;-69
2022/04/10 02:07:35;;;;;;;;;;;4.00;99.90;;;;;;2084480;28;19959;-68
2022/04/10 02:08:36;;;;;;;;;;;4.00;99.90;;;;;;2081348;28;19953;-68
2022/04/10 02:09:36;;;;;;;;;;;4.00;99.90;;;;;;2082736;28;20330;-68
2022/04/10 02:10:36;;;;;;;;;;;4.00;99.90;;;;;;2079798;28;19920;-68
2022/04/10 02:11:37;;;;;;;;;;;4.00;99.90;;;;;;2077989;28;19944;-68
2022/04/10 02:12:37;;;;;;;;;;;4.00;99.90;;;;;;2079997;28;19917;-68
2022/04/10 02:13:38;;;;;;;;;;;4.00;99.90;;;;;;2076997;28;19920;-69
2022/04/10 02:14:39;;;;;;;;;;;4.00;99.90;;;;;;2083707;28;19916;-68
2022/04/10 02:15:40;;;;;;;;;;;4.00;99.90;;;;;;2082749;28;20383;-68
2022/04/10 02:16:40;;;;;;;;;;;4.00;99.90;;;;;;2080047;28;19909;-68
2022/04/10 02:17:40;;;;;;;;;;;4.00;99.90;;;;;;2082805;28;19917;-68
2022/04/10 02:18:41;;;;;;;;;;;4.00;99.90;;;;;;2079545;28;19908;-68
2022/04/10 02:19:42;;;;;;;;;;;4.00;99.90;;;;;;2081643;28;19917;-68
2022/04/10 02:20:42;;;;;;;;;;;4.00;99.90;;;;;;2079705;28;19999;-68
2022/04/10 02:21:43;;;;;;;;;;;4.00;99.90;;;;;;2079948;28;20008;-68
2022/04/10 02:22:43;;;;;;;;;;;4.00;99.90;;;;;;2084401;28;19959;-68
2022/04/10 02:23:44;;;;;;;;;;;4.00;99.90;;;;;;2079921;28;20388;-68
2022/04/10 02:24:44;;;;;;;;;;;3.90;99.90;;;;;;2083545;28;19955;-68
2022/04/10 02:25:45;;;;;;;;;;;3.90;99.90;;;;;;2082122;28;19913;-68
2022/04/10 02:26:45;;;;;;;;;;;3.90;99.90;;;;;;2079840;28;19912;-68
2022/04/10 02:27:46;;;;;;;;;;;3.90;99.90;;;;;;2081313;28;19942;-68
2022/04/10 02:28:46;;;;;;;;;;;3.90;99.90;;;;;;2079128;28;19913;-68
2022/04/10 02:29:46;;;;;;;;;;;3.90;99.90;;;;;;2083476;28;20475;-69
2022/04/10 02:30:47;;;;;;;;;;;3.90;99.90;;;;;;2084650;28;19920;-68
2022/04/10 02:31:48;;;;;;;;;;;3.90;99.90;;;;;;2081291;28;19948;-68
2022/04/10 02:32:48;;;;;;;;;;;3.90;99.90;;;;;;2081890;28;19962;-68
2022/04/10 02:33:48;;;;;;;;;;;3.90;99.90;;;;;;2082283;28;20498;-68
2022/04/10 02:34:49;;;;;;;;;;;3.90;99.90;;;;;;2082006;28;19913;-68
2022/04/10 02:35:49;;;;;;;;;;;3.90;99.90;;;;;;2081069;28;20348;-68
2022/04/10 02:36:50;;;;;;;;;;;3.90;99.90;;;;;;2080461;28;19937;-68
2022/04/10 02:37:50;;;;;;;;;;;3.90;99.90;;;;;;2081140;28;20284;-68
2022/04/10 02:38:51;;;;;;;;;;;3.90;99.90;;;;;;2080986;28;19914;-68
2022/04/10 02:39:51;;;;;;;;;;;3.90;99.90;;;;;;2077717;28;19917;-68
2022/04/10 02:40:52;;;;;;;;;;;3.90;99.90;;;;;;2081001;28;19963;-68
2022/04/10 02:41:52;;;;;;;;;;;3.80;99.90;;;;;;2082856;28;19909;-68
2022/04/10 02:42:53;;;;;;;;;;;3.90;99.90;;;;;;2081901;28;19917;-68
2022/04/10 02:43:53;;;;;;;;;;;3.80;99.90;;;;;;2081323;28;20427;-68
2022/04/10 02:44:54;;;;;;;;;;;3.80;99.90;;;;;;2080108;28;19913;-68
2022/04/10 02:45:54;;;;;;;;;;;3.80;99.90;;;;;;2084232;28;20292;-68
2022/04/10 02:46:55;;;;;;;;;;;3.80;99.90;;;;;;2083906;28;20017;-68
2022/04/10 02:47:55;;;;;;;;;;;3.80;99.90;;;;;;2081971;28;20044;-68
2022/04/10 02:48:56;;;;;;;;;;;3.80;99.90;;;;;;2080792;28;19921;-68
2022/04/10 02:49:56;;;;;;;;;;;3.80;99.90;;;;;;2081449;28;19913;-69
2022/04/10 02:50:57;;;;;;;;;;;3.80;99.90;;;;;;2078525;28;19913;-68
2022/04/10 02:51:57;;;;;;;;;;;3.80;99.90;;;;;;2078131;28;19920;-68
2022/04/10 02:52:57;;;;;;;;;;;3.70;99.90;;;;;;2080673;28;20406;-68
2022/04/10 02:53:58;;;;;;;;;;;3.80;99.90;;;;;;2080156;28;19913;-68
2022/04/10 02:54:58;;;;;;;;;;;3.70;99.90;;;;;;2083935;28;19921;-68
2022/04/10 02:55:59;;;;;;;;;;;3.70;99.90;;;;;;2082868;28;19909;-68
2022/04/10 02:56:59;;;;;;;;;;;3.70;99.90;;;;;;2082932;28;19913;-68
2022/04/10 02:58:00;;;;;;;;;;;3.70;99.90;;;;;;2080588;28;19913;-68
2022/04/10 02:59:00;;;;;;;;;;;3.70;99.90;;;;;;2076344;28;19920;-68
2022/04/10 03:00:03;;;;;;;;;;;3.70;99.90;;;;;;2078970;28;19917;-68
2022/04/10 03:01:03;;;;;;;;;;;3.70;99.90;;;;;;2080417;28;19920;-68
2022/04/10 03:02:04;;;;;;;;;;;3.70;99.90;;;;;;2081866;28;19924;-68
2022/04/10 03:03:04;;;;;;;;;;;3.70;99.90;;;;;;2080178;28;19920;-68
2022/04/10 03:04:05;;;;;;;;;;;3.70;99.90;;;;;;2083271;28;19938;-68
2022/04/10 03:05:06;;;;;;;;;;;3.70;99.90;;;;;;2081653;28;20008;-68
2022/04/10 03:06:07;;;;;;;;;;;3.70;99.90;;;;;;2080272;28;20430;-69
2022/04/10 03:07:07;;;;;;;;;;;3.70;99.90;;;;;;2080338;28;20323;-68
2022/04/10 03:08:08;;;;;;;;;;;3.70;99.90;;;;;;2081527;28;19967;-68
2022/04/10 03:09:09;;;;;;;;;;;3.60;99.90;;;;;;2078711;28;19919;-69
2022/04/10 03:10:09;;;;;;;;;;;3.60;99.90;;;;;;2075458;28;19917;-68
2022/04/10 03:11:10;;;;;;;;;;;3.60;99.90;;;;;;2073312;28;20391;-68
2022/04/10 03:12:10;;;;;;;;;;;3.60;99.90;;;;;;2082134;28;19909;-69
2022/04/10 03:13:11;;;;;;;;;;;3.60;99.90;;;;;;2081198;28;19978;-68
2022/04/10 03:14:11;;;;;;;;;;;3.60;99.90;;;;;;2081203;28;19913;-68
2022/04/10 03:15:12;;;;;;;;;;;3.60;99.90;;;;;;2079007;28;19921;-68
2022/04/10 03:16:12;;;;;;;;;;;3.60;99.90;;;;;;2077054;28;19909;-68
2022/04/10 03:17:13;;;;;;;;;;;3.60;99.90;;;;;;2080166;28;19951;-68
2022/04/10 03:18:13;;;;;;;;;;;3.60;99.90;;;;;;2080719;28;19909;-68
2022/04/10 03:19:13;;;;;;;;;;;3.50;99.90;;;;;;2082253;28;20365;-68
2022/04/10 03:20:15;;;;;;;;;;;3.60;99.90;;;;;;2081591;28;19975;-68
2022/04/10 03:21:15;;;;;;;;;;;3.50;99.90;;;;;;2080783;28;19915;-68
2022/04/10 03:22:15;;;;;;;;;;;3.50;99.90;;;;;;2071579;28;19924;-68
2022/04/10 03:23:17;;;;;;;;;;;3.50;99.90;;;;;;2072976;28;19921;-68
2022/04/10 03:24:18;;;;;;;;;;;3.50;99.90;;;;;;2080407;28;19909;-68
2022/04/10 03:25:18;;;;;;;;;;;3.50;99.90;;;;;;2078070;28;20388;-69
2022/04/10 03:26:19;;;;;;;;;;;3.50;99.90;;;;;;2083085;28;20055;-68
2022/04/10 03:27:19;;;;;;;;;;;3.50;99.90;;;;;;2082104;28;19913;-69
2022/04/10 03:28:20;;;;;;;;;;;3.50;99.90;;;;;;2079630;28;20266;-68
2022/04/10 03:29:20;;;;;;;;;;;3.50;99.90;;;;;;2080311;28;20516;-68
2022/04/10 03:30:21;;;;;;;;;;;3.40;99.90;;;;;;2081891;28;20779;-68
2022/04/10 03:31:22;;;;;;;;;;;3.50;99.90;;;;;;2072759;28;19920;-68
2022/04/10 03:32:23;;;;;;;;;;;3.50;99.90;;;;;;2071603;28;19913;-68
2022/04/10 03:33:23;;;;;;;;;;;3.40;99.90;;;;;;2078200;28;19909;-68
2022/04/10 03:34:24;;;;;;;;;;;3.40;99.90;;;;;;2080515;28;20008;-68
2022/04/10 03:35:24;;;;;;;;;;;3.40;99.90;;;;;;2079934;28;20369;-68
2022/04/10 03:36:24;;;;;;;;;;;3.40;99.90;;;;;;2082355;28;20059;-68
2022/04/10 03:37:25;;;;;;;;;;;3.40;99.90;;;;;;2081479;28;20458;-68
2022/04/10 03:38:25;;;;;;;;;;;3.40;99.90;;;;;;2081173;28;19913;-68
2022/04/10 03:39:26;;;;;;;;;;;3.40;99.90;;;;;;2080614;28;20388;-68
2022/04/10 03:40:26;;;;;;;;;;;3.40;99.90;;;;;;2081553;28;19909;-68
2022/04/10 03:41:27;;;;;;;;;;;3.40;99.90;;;;;;2084308;28;20281;-68
2022/04/10 03:42:27;;;;;;;;;;;3.40;99.90;;;;;;2079388;28;20361;-68
2022/04/10 03:43:27;;;;;;;;;;;3.40;99.90;;;;;;2080528;28;19909;-68
2022/04/10 03:44:28;;;;;;;;;;;3.40;99.90;;;;;;2078527;28;19918;-68
2022/04/10 03:45:29;;;;;;;;;;;3.30;99.90;;;;;;2078773;28;19921;-68
2022/04/10 03:46:29;;;;;;;;;;;3.30;99.90;;;;;;2079667;28;20288;-68
2022/04/10 03:47:30;;;;;;;;;;;3.30;99.90;;;;;;2080116;28;19961;-68
2022/04/10 03:48:30;;;;;;;;;;;3.30;99.90;;;;;;2082223;28;20391;-68
2022/04/10 03:49:31;;;;;;;;;;;3.30;99.90;;;;;;2082604;28;19917;-68
2022/04/10 03:50:33;;;;;;;;;;;3.30;99.90;;;;;;2081231;28;19909;-68
2022/04/10 03:51:33;;;;;;;;;;;3.30;99.90;;;;;;2081091;28;19983;-68
2022/04/10 03:52:33;;;;;;;;;;;3.30;99.90;;;;;;2080523;28;19921;-68
2022/04/10 03:53:34;;;;;;;;;;;3.30;99.90;;;;;;2081570;28;19913;-68
2022/04/10 03:54:34;;;;;;;;;;;3.20;99.90;;;;;;2078338;28;19924;-68
2022/04/10 03:55:35;;;;;;;;;;;3.20;99.90;;;;;;2076509;28;19924;-68
2022/04/10 03:56:35;;;;;;;;;;;3.30;99.90;;;;;;2079736;28;19909;-68
2022/04/10 03:57:36;;;;;;;;;;;3.20;99.90;;;;;;2081735;28;20000;-68
2022/04/10 03:58:36;;;;;;;;;;;3.20;99.90;;;;;;2080797;28;19916;-68
2022/04/10 03:59:37;;;;;;;;;;;3.20;99.90;;;;;;2082355;28;20002;-68
2022/04/10 04:00:37;;;;;;;;;;;3.20;99.90;;;;;;2080054;28;20360;-68
2022/04/10 04:01:37;;;;;;;;;;;3.20;99.90;;;;;;2081366;28;19917;-68
2022/04/10 04:02:42;;;;;;;;;;;3.20;99.90;;;;;;2076350;28;19928;-68
2022/04/10 04:03:42;;;;;;;;;;;3.20;99.90;;;;;;2080442;28;19917;-68
2022/04/10 04:04:43;;;;;;;;;;;3.20;99.90;;;;;;2082956;28;19909;-68
2022/04/10 04:05:43;;;;;;;;;;;3.20;99.90;;;;;;2080756;28;19978;-68
2022/04/10 04:06:44;;;;;;;;;;;3.20;99.90;;;;;;2082931;28;19916;-68
2022/04/10 04:07:44;;;;;;;;;;;3.20;99.90;;;;;;2081978;28;19920;-68
2022/04/10 04:08:45;;;;;;;;;;;3.10;99.90;;;;;;2079104;28;19921;-68
2022/04/10 04:09:45;;;;;;;;;;;3.10;99.90;;;;;;2080569;28;20003;-68
2022/04/10 04:10:46;;;;;;;;;;;3.10;99.90;;;;;;2078077;28;19913;-68
2022/04/10 04:11:46;;;;;;;;;;;3.10;99.90;;;;;;2080375;28;19952;-68
2022/04/10 04:12:47;;;;;;;;;;;3.10;99.90;;;;;;2082408;28;19912;-68
2022/04/10 04:13:47;;;;;;;;;;;3.10;99.90;;;;;;2080869;28;19955;-68
2022/04/10 04:14:48;;;;;;;;;;;3.10;99.90;;;;;;2082180;28;19967;-68
2022/04/10 04:15:48;;;;;;;;;;;3.10;99.90;;;;;;2080469;28;19999;-68
2022/04/10 04:16:48;;;;;;;;;;;3.10;99.90;;;;;;2081246;28;19921;-68
2022/04/10 04:17:49;;;;;;;;;;;3.10;99.90;;;;;;2081527;28;19910;-68
2022/04/10 04:18:49;;;;;;;;;;;3.10;99.90;;;;;;2077383;28;19932;-69
2022/04/10 04:19:51;;;;;;;;;;;3.10;99.90;;;;;;2080020;28;19975;-68
2022/04/10 04:20:51;;;;;;;;;;;3.10;99.90;;;;;;2083702;28;19909;-68
2022/04/10 04:21:51;;;;;;;;;;;3.00;99.90;;;;;;2082832;28;19948;-68
2022/04/10 04:22:53;;;;;;;;;;;3.00;99.90;;;;;;2082752;28;20342;-68
2022/04/10 04:23:54;;;;;;;;;;;3.00;99.90;;;;;;2078801;28;19917;-68
2022/04/10 04:24:54;;;;;;;;;;;3.00;99.90;;;;;;2081633;28;19909;-68
2022/04/10 04:25:55;;;;;;;;;;;3.00;99.90;;;;;;2080581;28;19913;-68
2022/04/10 04:26:55;;;;;;;;;;;3.00;99.90;;;;;;2077735;28;19919;-68
2022/04/10 04:27:56;;;;;;;;;;;3.00;99.90;;;;;;2079091;28;19917;-68
2022/04/10 04:28:56;;;;;;;;;;;3.00;99.90;;;;;;2081361;28;19913;-68
2022/04/10 04:29:57;;;;;;;;;;;3.00;99.90;;;;;;2080576;28;20372;-68
2022/04/10 04:30:57;;;;;;;;;;;3.00;99.90;;;;;;2082485;28;19917;-68
2022/04/10 04:31:57;;;;;;;;;;;3.00;99.90;;;;;;2079669;28;19977;-68
2022/04/10 04:32:58;;;;;;;;;;;3.00;99.90;;;;;;2079443;28;19948;-68
2022/04/10 04:33:58;;;;;;;;;;;3.00;99.90;;;;;;2080095;28;19925;-68
2022/04/10 04:34:59;;;;;;;;;;;3.00;99.90;;;;;;2078887;28;19917;-68
2022/04/10 04:35:59;;;;;;;;;;;3.00;99.90;;;;;;2079782;28;19913;-68
2022/04/10 04:37:00;;;;;;;;;;;3.00;99.90;;;;;;2079790;28;19962;-68
2022/04/10 04:38:00;;;;;;;;;;;2.90;99.90;;;;;;2080236;28;19913;-68
2022/04/10 04:39:01;;;;;;;;;;;2.90;99.90;;;;;;2080794;28;20712;-68
2022/04/10 04:40:01;;;;;;;;;;;2.90;99.90;;;;;;2081476;28;20636;-68
2022/04/10 04:41:01;;;;;;;;;;;2.90;99.90;;;;;;2080774;28;19913;-68
2022/04/10 04:42:02;;;;;;;;;;;2.90;99.90;;;;;;2078936;28;19920;-68
2022/04/10 04:43:02;;;;;;;;;;;2.90;99.90;;;;;;2078429;28;20642;-68
2022/04/10 04:44:03;;;;;;;;;;;2.90;99.90;;;;;;2080386;28;19971;-68
2022/04/10 04:45:04;;;;;;;;;;;2.90;99.90;;;;;;2080884;28;19948;-68
2022/04/10 04:46:04;;;;;;;;;;;2.90;99.90;;;;;;2081962;28;19916;-68
2022/04/10 04:47:05;;;;;;;;;;;2.80;99.90;;;;;;2082269;28;20600;-68
2022/04/10 04:48:06;;;;;;;;;;;2.90;99.90;;;;;;2080608;28;19967;-68
2022/04/10 04:49:06;;;;;;;;;;;2.80;99.90;;;;;;2080852;28;19917;-69
2022/04/10 04:50:07;;;;;;;;;;;2.80;99.90;;;;;;2079622;28;19920;-68
2022/04/10 04:51:07;;;;;;;;;;;2.80;99.90;;;;;;2079868;28;19909;-68
2022/04/10 04:52:08;;;;;;;;;;;2.80;99.90;;;;;;2077251;28;19952;-68
2022/04/10 04:53:08;;;;;;;;;;;2.80;99.90;;;;;;2082262;28;20431;-68
2022/04/10 04:54:09;;;;;;;;;;;2.80;99.90;;;;;;2079597;28;19917;-68
2022/04/10 04:55:09;;;;;;;;;;;2.80;99.90;;;;;;2081688;28;19916;-68
2022/04/10 04:56:09;;;;;;;;;;;2.80;99.90;;;;;;2079515;28;20392;-68
2022/04/10 04:57:10;;;;;;;;;;;2.70;99.90;;;;;;2079867;28;19956;-68
2022/04/10 04:58:10;;;;;;;;;;;2.70;99.90;;;;;;2079674;28;19909;-68
2022/04/10 04:59:14;;;;;;;;;;;2.70;99.90;;;;;;2078927;28;19919;-68
2022/04/10 05:00:15;;;;;;;;;;;2.70;99.90;;;;;;2080870;28;20012;-68
2022/04/10 05:01:15;;;;;;;;;;;2.70;99.90;;;;;;2083993;28;19910;-68
2022/04/10 05:02:16;;;;;;;;;;;2.70;99.90;;;;;;2083423;28;19919;-68
2022/04/10 05:03:16;;;;;;;;;;;2.70;99.90;;;;;;2076446;28;20361;-68
2022/04/10 05:04:17;;;;;;;;;;;2.70;99.90;;;;;;2081110;28;19914;-68
2022/04/10 05:05:17;;;;;;;;;;;2.70;99.90;;;;;;2075759;28;19917;-68
2022/04/10 05:06:18;;;;;;;;;;;2.70;99.90;;;;;;2081312;28;19910;-68
2022/04/10 05:07:18;;;;;;;;;;;2.70;99.90;;;;;;2081058;28;19916;-68
2022/04/10 05:08:20;;;;;;;;;;;2.70;99.90;;;;;;2080752;28;20405;-68
2022/04/10 05:09:20;;;;;;;;;;;2.70;99.90;;;;;;2081227;28;19913;-68
2022/04/10 05:10:21;;;;;;;;;;;2.70;99.90;;;;;;2078985;28;19913;-68
2022/04/10 05:11:21;;;;;;;;;;;2.70;99.90;;;;;;2079624;28;19913;-68
2022/04/10 05:12:22;;;;;;;;;;;2.70;99.90;;;;;;2080748;28;19924;-68
2022/04/10 05:13:22;;;;;;;;;;;2.70;99.90;;;;;;2079506;28;19980;-68
2022/04/10 05:14:23;;;;;;;;;;;2.70;99.90;;;;;;2081337;28;20016;-68
2022/04/10 05:15:23;;;;;;;;;;;2.70;99.90;;;;;;2077318;28;20272;-68
2022/04/10 05:16:24;;;;;;;;;;;2.70;99.90;;;;;;2080843;28;19915;-68
2022/04/10 05:17:26;;;;;;;;;;;2.70;99.90;;;;;;2079650;28;20324;-68
2022/04/10 05:18:27;;;;;;;;;;;2.70;99.90;;;;;;2076116;28;19916;-68
2022/04/10 05:19:27;;;;;;;;;;;2.60;99.90;;;;;;2079029;28;19910;-68
2022/04/10 05:20:28;;;;;;;;;;;2.70;99.90;;;;;;2081295;28;19914;-68
2022/04/10 05:21:28;;;;;;;;;;;2.60;99.90;;;;;;2079747;28;19920;-68
2022/04/10 05:22:28;;;;;;;;;;;2.70;99.90;;;;;;2079680;28;20004;-68
2022/04/10 05:23:29;;;;;;;;;;;2.60;99.90;;;;;;2078654;28;19916;-68
2022/04/10 05:24:29;;;;;;;;;;;2.60;99.90;;;;;;2081257;28;19913;-68
2022/04/10 05:25:30;;;;;;;;;;;2.60;99.90;;;;;;2080921;28;19940;-68
2022/04/10 05:26:30;;;;;;;;;;;2.60;99.90;;;;;;2081623;28;19913;-68
2022/04/10 05:27:31;;;;;;;;;;;2.60;99.90;;;;;;2083317;28;19967;-68
2022/04/10 05:28:32;;;;;;;;;;;2.60;99.90;;;;;;2082829;28;19913;-68
2022/04/10 05:29:32;;;;;;;;;;;2.60;99.90;;;;;;2078975;28;19916;-68
2022/04/10 05:30:33;;;;;;;;;;;2.60;99.90;;;;;;2081801;28;19920;-68
2022/04/10 05:31:33;;;;;;;;;;;2.60;99.90;;;;;;2079250;28;20766;-68
2022/04/10 05:32:33;;;;;;;;;;;2.60;99.90;;;;;;2083542;28;19989;-68
2022/04/10 05:33:34;;;;;;;;;;;2.70;99.90;;;;;;2083165;28;20011;-68
2022/04/10 05:34:35;;;;;;;;;;;2.70;99.90;;;;;;2080201;28;19932;-68
2022/04/10 05:35:35;;;;;;;;;;;2.70;99.90;;;;;;2082212;28;20327;-68
2022/04/10 05:36:36;;;;;;;;;;;2.70;99.90;;;;;;2083137;28;19967;-68
2022/04/10 05:37:36;;;;;;;;;;;2.70;99.90;;;;;;2077037;28;19924;-68
2022/04/10 05:38:37;;;;;;;;;;;2.70;99.90;;;;;;2081642;28;19920;-68
2022/04/10 05:39:39;;;;;;;;;;;2.70;99.90;;;;;;2078328;28;19924;-68
2022/04/10 05:40:39;;;;;;;;;;;2.70;99.90;;;;;;2081964;28;19975;-68
2022/04/10 05:41:40;;;;;;;;;;;2.80;99.90;;;;;;2080223;28;19913;-68
2022/04/10 05:42:43;;;;;;;;;;;2.80;99.90;;;;;;2078587;28;20309;-68
2022/04/10 05:43:44;;;;;;;;;;;2.80;99.90;;;;;;2080137;28;20004;-68
2022/04/10 05:44:44;;;;;;;;;;;2.80;99.90;;;;;;2078767;28;19913;-69
2022/04/10 05:45:45;;;;;;;;;;;2.90;99.90;;;;;;2080594;28;20364;-68
2022/04/10 05:46:45;;;;;;;;;;;2.90;99.90;;;;;;2076076;28;19916;-68
2022/04/10 05:47:46;;;;;;;;;;;3.00;99.90;;;;;;2080560;28;20780;-68
2022/04/10 05:48:46;;;;;;;;;;;3.00;99.90;;;;;;2081000;28;19913;-68
2022/04/10 05:49:47;;;;;;;;;;;3.10;99.90;;;;;;2080717;28;19940;-68
2022/04/10 05:50:47;;;;;;;;;;;3.10;99.90;;;;;;2079467;28;20003;-68
2022/04/10 05:51:50;;;;;;;;;;;3.20;99.90;;;;;;2080491;28;20019;-68
2022/04/10 05:52:51;;;;;;;;;;;3.20;99.90;;;;;;2080877;28;20280;-68
2022/04/10 05:53:51;;;;;;;;;;;3.20;99.90;;;;;;2081580;28;19909;-68
2022/04/10 05:54:51;;;;;;;;;;;3.30;99.90;;;;;;2080757;28;19963;-68
2022/04/10 05:55:52;;;;;;;;;;;3.40;99.90;;;;;;2078516;28;20000;-68
2022/04/10 05:56:53;;;;;;;;;;;3.40;99.90;;;;;;2080445;28;19940;-68
2022/04/10 05:57:53;;;;;;;;;;;3.50;99.90;;;;;;2079477;28;19952;-68
2022/04/10 05:58:53;;;;;;;;;;;3.50;99.90;;;;;;2079616;28;19921;-68
2022/04/10 05:59:54;;;;;;;;;;;3.60;99.90;;;;;;2080870;28;19916;-68